Terminal Aerodrome Forecast
Issued by NWS Detroit/Pontiac, MI

Home | Current Version | Previous Version | Text Only | Print | Product List | Glossary On
Versions: 1 2 3 4 5 6 7 8 9 10 11 12 13 14 15 16
000
FTUS43 KDTX 242320
TAFFNT
TAF
KFNT 242320Z 2500/2524 35009KT P6SM SCT025 OVC045
     FM250100 01008KT P6SM BKN025 OVC035
     FM250400 03006KT 4SM -RA BR OVC012
     FM250700 04010KT 2SM -RA BR OVC008
     FM250900 05007KT 1 1/2SM -RA BR OVC003
     FM251500 06010KT 4SM -DZ BR OVC008=

USA.gov is the U.S. government's official web portal to all federal, state and local government web resources and services.